sensor_id;sensor_type;location;lat;lon;timestamp;P1;durP1;ratioP1;P2;durP2;ratioP2
25639;SDS011;13497;48.322;16.204;2024-03-23T00:54:18;11.82;;;10.10;;
25639;SDS011;13497;48.322;16.204;2024-03-23T00:56:44;11.40;;;10.30;;
25639;SDS011;13497;48.322;16.204;2024-03-23T00:59:09;12.85;;;11.70;;
25639;SDS011;13497;48.322;16.204;2024-03-23T01:01:35;12.32;;;9.45;;
25639;SDS011;13497;48.322;16.204;2024-03-23T01:04:01;11.30;;;9.90;;
25639;SDS011;13497;48.322;16.204;2024-03-23T01:06:28;11.82;;;10.70;;
25639;SDS011;13497;48.322;16.204;2024-03-23T01:08:53;13.57;;;12.45;;
25639;SDS011;13497;48.322;16.204;2024-03-23T01:11:19;11.65;;;10.63;;
25639;SDS011;13497;48.322;16.204;2024-03-23T01:13:44;10.30;;;9.30;;
25639;SDS011;13497;48.322;16.204;2024-03-23T01:16:10;10.93;;;9.93;;
25639;SDS011;13497;48.322;16.204;2024-03-23T01:18:36;13.30;;;11.85;;
25639;SDS011;13497;48.322;16.204;2024-03-23T01:21:01;10.90;;;9.90;;
25639;SDS011;13497;48.322;16.204;2024-03-23T01:23:27;13.95;;;12.35;;
25639;SDS011;13497;48.322;16.204;2024-03-23T01:25:53;12.00;;;10.85;;
25639;SDS011;13497;48.322;16.204;2024-03-23T01:28:22;12.27;;;11.27;;
25639;SDS011;13497;48.322;16.204;2024-03-23T01:30:48;13.55;;;11.40;;
25639;SDS011;13497;48.322;16.204;2024-03-23T01:33:15;7.43;;;4.53;;
25639;SDS011;13497;48.322;16.204;2024-03-23T01:35:40;13.85;;;12.68;;
25639;SDS011;13497;48.322;16.204;2024-03-23T01:38:06;11.27;;;10.27;;
25639;SDS011;13497;48.322;16.204;2024-03-23T01:40:32;10.15;;;9.30;;
25639;SDS011;13497;48.322;16.204;2024-03-23T01:42:58;11.48;;;9.10;;
25639;SDS011;13497;48.322;16.204;2024-03-23T01:45:28;11.82;;;10.63;;
25639;SDS011;13497;48.322;16.204;2024-03-23T01:47:55;11.65;;;10.55;;
25639;SDS011;13497;48.322;16.204;2024-03-23T01:50:20;10.52;;;9.55;;
25639;SDS011;13497;48.322;16.204;2024-03-23T01:52:47;10.38;;;9.48;;
25639;SDS011;13497;48.322;16.204;2024-03-23T01:55:14;8.30;;;5.07;;
25639;SDS011;13497;48.322;16.204;2024-03-23T01:57:40;12.30;;;11.20;;
25639;SDS011;13497;48.322;16.204;2024-03-23T02:00:06;11.30;;;10.30;;
25639;SDS011;13497;48.322;16.204;2024-03-23T02:02:32;12.20;;;11.02;;
25639;SDS011;13497;48.322;16.204;2024-03-23T02:04:58;12.77;;;9.80;;
25639;SDS011;13497;48.322;16.204;2024-03-23T02:07:24;10.93;;;9.82;;
25639;SDS011;13497;48.322;16.204;2024-03-23T02:09:50;11.98;;;10.75;;
25639;SDS011;13497;48.322;16.204;2024-03-23T02:12:16;11.32;;;10.32;;
25639;SDS011;13497;48.322;16.204;2024-03-23T02:14:42;10.38;;;9.38;;
25639;SDS011;13497;48.322;16.204;2024-03-23T02:17:08;11.75;;;10.73;;
25639;SDS011;13497;48.322;16.204;2024-03-23T02:19:34;10.32;;;9.32;;
25639;SDS011;13497;48.322;16.204;2024-03-23T02:22:00;12.02;;;11.02;;
25639;SDS011;13497;48.322;16.204;2024-03-23T02:24:26;11.20;;;10.15;;
25639;SDS011;13497;48.322;16.204;2024-03-23T02:26:51;15.30;;;9.65;;
25639;SDS011;13497;48.322;16.204;2024-03-23T02:29:17;10.30;;;9.30;;
25639;SDS011;13497;48.322;16.204;2024-03-23T02:31:44;14.95;;;13.52;;
25639;SDS011;13497;48.322;16.204;2024-03-23T02:34:10;18.42;;;10.80;;
25639;SDS011;13497;48.322;16.204;2024-03-23T02:36:35;9.98;;;8.85;;
25639;SDS011;13497;48.322;16.204;2024-03-23T02:39:01;13.02;;;10.98;;
25639;SDS011;13497;48.322;16.204;2024-03-23T02:41:27;11.73;;;10.63;;
25639;SDS011;13497;48.322;16.204;2024-03-23T02:43:52;11.45;;;10.10;;
25639;SDS011;13497;48.322;16.204;2024-03-23T02:46:18;13.38;;;12.25;;
25639;SDS011;13497;48.322;16.204;2024-03-23T02:48:44;11.98;;;10.15;;
25639;SDS011;13497;48.322;16.204;2024-03-23T02:51:09;11.18;;;9.63;;
25639;SDS011;13497;48.322;16.204;2024-03-23T02:53:35;15.57;;;11.98;;
25639;SDS011;13497;48.322;16.204;2024-03-23T02:56:01;15.52;;;11.30;;
25639;SDS011;13497;48.322;16.204;2024-03-23T02:58:27;14.75;;;11.63;;
25639;SDS011;13497;48.322;16.204;2024-03-23T03:00:53;12.85;;;11.57;;
25639;SDS011;13497;48.322;16.204;2024-03-23T03:03:18;13.27;;;11.98;;
25639;SDS011;13497;48.322;16.204;2024-03-23T03:05:44;19.88;;;11.38;;
25639;SDS011;13497;48.322;16.204;2024-03-23T03:08:09;13.35;;;8.57;;
25639;SDS011;13497;48.322;16.204;2024-03-23T03:10:35;10.95;;;9.27;;
25639;SDS011;13497;48.322;16.204;2024-03-23T03:13:01;14.30;;;13.10;;
25639;SDS011;13497;48.322;16.204;2024-03-23T03:15:27;17.50;;;9.43;;
25639;SDS011;13497;48.322;16.204;2024-03-23T03:17:53;14.43;;;10.32;;
25639;SDS011;13497;48.322;16.204;2024-03-23T03:20:19;9.18;;;5.88;;
25639;SDS011;13497;48.322;16.204;2024-03-23T03:22:47;10.95;;;9.95;;
25639;SDS011;13497;48.322;16.204;2024-03-23T03:25:12;13.60;;;11.77;;
25639;SDS011;13497;48.322;16.204;2024-03-23T03:27:38;11.68;;;10.52;;
25639;SDS011;13497;48.322;16.204;2024-03-23T03:30:04;12.68;;;11.60;;
25639;SDS011;13497;48.322;16.204;2024-03-23T03:32:32;9.45;;;8.45;;
25639;SDS011;13497;48.322;16.204;2024-03-23T03:34:58;10.27;;;9.32;;
25639;SDS011;13497;48.322;16.204;2024-03-23T03:37:23;21.75;;;11.50;;
25639;SDS011;13497;48.322;16.204;2024-03-23T03:39:49;14.52;;;10.45;;
25639;SDS011;13497;48.322;16.204;2024-03-23T03:42:15;11.25;;;10.15;;
25639;SDS011;13497;48.322;16.204;2024-03-23T03:44:40;12.93;;;11.73;;
25639;SDS011;13497;48.322;16.204;2024-03-23T03:47:06;9.32;;;8.43;;
25639;SDS011;13497;48.322;16.204;2024-03-23T03:49:32;11.80;;;10.70;;
25639;SDS011;13497;48.322;16.204;2024-03-23T03:51:58;12.55;;;11.35;;
25639;SDS011;13497;48.322;16.204;2024-03-23T03:54:23;13.15;;;9.30;;
25639;SDS011;13497;48.322;16.204;2024-03-23T03:56:49;10.35;;;9.13;;
25639;SDS011;13497;48.322;16.204;2024-03-23T03:59:15;11.23;;;9.20;;
25639;SDS011;13497;48.322;16.204;2024-03-23T04:01:41;11.68;;;10.35;;
25639;SDS011;13497;48.322;16.204;2024-03-23T04:04:06;11.90;;;10.68;;
25639;SDS011;13497;48.322;16.204;2024-03-23T04:06:32;11.25;;;10.25;;
25639;SDS011;13497;48.322;16.204;2024-03-23T04:08:58;11.88;;;9.90;;
25639;SDS011;13497;48.322;16.204;2024-03-23T04:11:24;11.05;;;9.85;;
25639;SDS011;13497;48.322;16.204;2024-03-23T04:13:49;11.15;;;10.05;;
25639;SDS011;13497;48.322;16.204;2024-03-23T04:16:26;10.65;;;9.10;;
25639;SDS011;13497;48.322;16.204;2024-03-23T04:18:53;10.88;;;9.88;;
25639;SDS011;13497;48.322;16.204;2024-03-23T04:21:19;12.57;;;9.68;;
25639;SDS011;13497;48.322;16.204;2024-03-23T04:23:44;14.00;;;12.82;;
25639;SDS011;13497;48.322;16.204;2024-03-23T04:26:10;21.00;;;16.05;;
25639;SDS011;13497;48.322;16.204;2024-03-23T04:28:36;14.40;;;13.10;;
25639;SDS011;13497;48.322;16.204;2024-03-23T04:31:05;11.70;;;7.18;;
25639;SDS011;13497;48.322;16.204;2024-03-23T04:33:30;13.73;;;10.88;;
25639;SDS011;13497;48.322;16.204;2024-03-23T04:35:56;13.60;;;12.38;;
25639;SDS011;13497;48.322;16.204;2024-03-23T04:38:22;13.02;;;11.35;;
25639;SDS011;13497;48.322;16.204;2024-03-23T04:40:57;12.13;;;10.98;;
25639;SDS011;13497;48.322;16.204;2024-03-23T04:43:25;12.55;;;9.52;;
25639;SDS011;13497;48.322;16.204;2024-03-23T04:45:51;12.55;;;11.27;;
25639;SDS011;13497;48.322;16.204;2024-03-23T04:48:19;16.50;;;14.95;;
25639;SDS011;13497;48.322;16.204;2024-03-23T04:50:48;12.23;;;10.40;;
25639;SDS011;13497;48.322;16.204;2024-03-23T04:53:15;10.27;;;9.38;;
25639;SDS011;13497;48.322;16.204;2024-03-23T04:55:41;12.43;;;11.32;;
25639;SDS011;13497;48.322;16.204;2024-03-23T04:58:09;14.70;;;13.27;;
25639;SDS011;13497;48.322;16.204;2024-03-23T05:00:35;12.90;;;11.57;;
25639;SDS011;13497;48.322;16.204;2024-03-23T05:03:00;16.48;;;11.05;;
25639;SDS011;13497;48.322;16.204;2024-03-23T05:05:26;13.10;;;11.02;;
25639;SDS011;13497;48.322;16.204;2024-03-23T05:07:52;11.52;;;10.43;;
25639;SDS011;13497;48.322;16.204;2024-03-23T05:10:18;19.55;;;12.07;;
25639;SDS011;13497;48.322;16.204;2024-03-23T05:12:43;19.90;;;13.60;;
25639;SDS011;13497;48.322;16.204;2024-03-23T05:15:10;17.42;;;11.85;;
25639;SDS011;13497;48.322;16.204;2024-03-23T05:17:36;11.90;;;9.73;;
25639;SDS011;13497;48.322;16.204;2024-03-23T05:20:02;16.50;;;15.00;;
25639;SDS011;13497;48.322;16.204;2024-03-23T05:22:30;14.82;;;11.82;;
25639;SDS011;13497;48.322;16.204;2024-03-23T05:24:56;13.23;;;11.93;;
25639;SDS011;13497;48.322;16.204;2024-03-23T05:27:21;12.88;;;11.52;;
25639;SDS011;13497;48.322;16.204;2024-03-23T05:29:48;17.42;;;15.32;;
25639;SDS011;13497;48.322;16.204;2024-03-23T05:32:13;13.32;;;11.95;;
25639;SDS011;13497;48.322;16.204;2024-03-23T05:34:39;13.48;;;12.30;;
25639;SDS011;13497;48.322;16.204;2024-03-23T05:37:04;12.65;;;11.55;;
25639;SDS011;13497;48.322;16.204;2024-03-23T05:39:30;14.52;;;13.00;;
25639;SDS011;13497;48.322;16.204;2024-03-23T05:41:56;12.32;;;11.18;;
25639;SDS011;13497;48.322;16.204;2024-03-23T05:44:22;14.57;;;12.40;;
25639;SDS011;13497;48.322;16.204;2024-03-23T05:46:47;18.30;;;14.02;;
25639;SDS011;13497;48.322;16.204;2024-03-23T05:49:14;18.38;;;16.33;;
25639;SDS011;13497;48.322;16.204;2024-03-23T05:51:41;21.33;;;14.57;;
25639;SDS011;13497;48.322;16.204;2024-03-23T05:54:06;21.73;;;16.88;;
25639;SDS011;13497;48.322;16.204;2024-03-23T05:56:32;45.20;;;24.85;;
25639;SDS011;13497;48.322;16.204;2024-03-23T05:58:58;28.60;;;19.95;;
25639;SDS011;13497;48.322;16.204;2024-03-23T06:01:23;22.08;;;17.23;;
25639;SDS011;13497;48.322;16.204;2024-03-23T06:03:49;15.38;;;13.75;;
25639;SDS011;13497;48.322;16.204;2024-03-23T06:06:15;20.83;;;14.90;;
25639;SDS011;13497;48.322;16.204;2024-03-23T06:08:41;18.75;;;14.82;;
25639;SDS011;13497;48.322;16.204;2024-03-23T06:11:06;13.93;;;12.50;;
25639;SDS011;13497;48.322;16.204;2024-03-23T06:13:32;18.02;;;15.00;;
25639;SDS011;13497;48.322;16.204;2024-03-23T06:18:24;15.55;;;13.93;;
25639;SDS011;13497;48.322;16.204;2024-03-23T06:20:51;15.93;;;9.63;;
25639;SDS011;13497;48.322;16.204;2024-03-23T06:23:16;16.15;;;13.50;;
25639;SDS011;13497;48.322;16.204;2024-03-23T06:25:44;16.80;;;15.25;;
25639;SDS011;13497;48.322;16.204;2024-03-23T06:28:10;14.65;;;12.98;;
25639;SDS011;13497;48.322;16.204;2024-03-23T06:30:36;16.42;;;14.70;;
25639;SDS011;13497;48.322;16.204;2024-03-23T06:33:01;19.23;;;13.60;;
25639;SDS011;13497;48.322;16.204;2024-03-23T06:35:27;17.10;;;14.10;;
25639;SDS011;13497;48.322;16.204;2024-03-23T06:37:53;15.98;;;14.48;;
25639;SDS011;13497;48.322;16.204;2024-03-23T06:40:18;18.33;;;14.55;;
25639;SDS011;13497;48.322;16.204;2024-03-23T06:42:44;18.17;;;15.48;;
25639;SDS011;13497;48.322;16.204;2024-03-23T06:45:10;22.95;;;17.48;;
25639;SDS011;13497;48.322;16.204;2024-03-23T06:47:35;20.30;;;16.00;;
25639;SDS011;13497;48.322;16.204;2024-03-23T06:50:02;24.00;;;17.65;;
25639;SDS011;13497;48.322;16.204;2024-03-23T06:52:28;23.92;;;19.45;;
25639;SDS011;13497;48.322;16.204;2024-03-23T06:54:55;21.55;;;18.38;;
25639;SDS011;13497;48.322;16.204;2024-03-23T06:57:21;17.02;;;11.90;;
25639;SDS011;13497;48.322;16.204;2024-03-23T06:59:46;19.65;;;17.73;;
25639;SDS011;13497;48.322;16.204;2024-03-23T07:02:12;22.08;;;20.05;;
25639;SDS011;13497;48.322;16.204;2024-03-23T07:04:38;20.70;;;18.38;;
25639;SDS011;13497;48.322;16.204;2024-03-23T07:07:06;21.30;;;19.23;;
25639;SDS011;13497;48.322;16.204;2024-03-23T07:09:32;19.30;;;17.15;;
25639;SDS011;13497;48.322;16.204;2024-03-23T07:11:58;22.55;;;15.98;;
25639;SDS011;13497;48.322;16.204;2024-03-23T07:14:24;24.40;;;17.67;;
25639;SDS011;13497;48.322;16.204;2024-03-23T07:16:50;20.17;;;18.15;;
25639;SDS011;13497;48.322;16.204;2024-03-23T07:19:16;24.27;;;15.88;;
25639;SDS011;13497;48.322;16.204;2024-03-23T07:24:09;20.77;;;18.05;;
25639;SDS011;13497;48.322;16.204;2024-03-23T07:26:35;22.42;;;14.23;;
25639;SDS011;13497;48.322;16.204;2024-03-23T07:29:00;19.90;;;17.05;;
25639;SDS011;13497;48.322;16.204;2024-03-23T07:31:27;18.88;;;16.65;;
25639;SDS011;13497;48.322;16.204;2024-03-23T07:33:53;18.55;;;15.68;;
25639;SDS011;13497;48.322;16.204;2024-03-23T07:36:18;25.50;;;18.05;;
25639;SDS011;13497;48.322;16.204;2024-03-23T07:38:44;26.17;;;20.42;;
25639;SDS011;13497;48.322;16.204;2024-03-23T07:41:16;26.02;;;20.15;;
25639;SDS011;13497;48.322;16.204;2024-03-23T07:43:43;21.73;;;18.58;;
25639;SDS011;13497;48.322;16.204;2024-03-23T07:46:08;24.83;;;16.63;;
25639;SDS011;13497;48.322;16.204;2024-03-23T07:48:34;26.58;;;18.90;;
25639;SDS011;13497;48.322;16.204;2024-03-23T07:53:31;25.77;;;21.83;;
25639;SDS011;13497;48.322;16.204;2024-03-23T07:56:07;24.77;;;19.08;;
25639;SDS011;13497;48.322;16.204;2024-03-23T07:58:35;22.40;;;18.13;;
25639;SDS011;13497;48.322;16.204;2024-03-23T08:01:11;20.40;;;18.30;;
25639;SDS011;13497;48.322;16.204;2024-03-23T08:03:40;19.95;;;16.75;;
25639;SDS011;13497;48.322;16.204;2024-03-23T08:08:40;19.45;;;16.77;;
25639;SDS011;13497;48.322;16.204;2024-03-23T08:11:07;17.98;;;16.13;;
25639;SDS011;13497;48.322;16.204;2024-03-23T08:13:33;16.25;;;14.38;;
25639;SDS011;13497;48.322;16.204;2024-03-23T08:16:00;16.13;;;14.00;;
25639;SDS011;13497;48.322;16.204;2024-03-23T08:18:27;17.55;;;13.80;;
25639;SDS011;13497;48.322;16.204;2024-03-23T08:21:05;24.65;;;12.60;;
25639;SDS011;13497;48.322;16.204;2024-03-23T08:23:32;16.77;;;12.25;;
25639;SDS011;13497;48.322;16.204;2024-03-23T08:25:59;22.38;;;14.77;;
25639;SDS011;13497;48.322;16.204;2024-03-23T08:28:26;12.02;;;10.80;;
25639;SDS011;13497;48.322;16.204;2024-03-23T08:30:52;13.50;;;12.18;;
25639;SDS011;13497;48.322;16.204;2024-03-23T08:33:18;13.77;;;12.23;;
25639;SDS011;13497;48.322;16.204;2024-03-23T08:35:56;20.88;;;12.77;;
25639;SDS011;13497;48.322;16.204;2024-03-23T08:38:23;14.35;;;6.13;;
25639;SDS011;13497;48.322;16.204;2024-03-23T08:43:25;12.35;;;10.18;;
25639;SDS011;13497;48.322;16.204;2024-03-23T08:45:51;13.35;;;9.15;;
25639;SDS011;13497;48.322;16.204;2024-03-23T08:48:17;12.75;;;11.38;;
25639;SDS011;13497;48.322;16.204;2024-03-23T08:50:45;15.63;;;13.95;;
25639;SDS011;13497;48.322;16.204;2024-03-23T08:53:11;15.15;;;12.88;;
25639;SDS011;13497;48.322;16.204;2024-03-23T08:55:37;14.35;;;11.73;;
25639;SDS011;13497;48.322;16.204;2024-03-23T08:58:02;11.30;;;10.23;;
25639;SDS011;13497;48.322;16.204;2024-03-23T09:02:55;14.45;;;9.63;;
25639;SDS011;13497;48.322;16.204;2024-03-23T09:05:22;11.32;;;10.00;;
25639;SDS011;13497;48.322;16.204;2024-03-23T09:07:49;13.13;;;8.48;;
25639;SDS011;13497;48.322;16.204;2024-03-23T09:10:15;9.32;;;7.55;;
25639;SDS011;13497;48.322;16.204;2024-03-23T09:12:40;8.30;;;7.50;;
25639;SDS011;13497;48.322;16.204;2024-03-23T09:15:06;8.48;;;5.47;;
25639;SDS011;13497;48.322;16.204;2024-03-23T09:17:32;17.33;;;8.40;;
25639;SDS011;13497;48.322;16.204;2024-03-23T09:19:57;8.43;;;3.35;;
25639;SDS011;13497;48.322;16.204;2024-03-23T09:22:23;12.95;;;11.75;;
25639;SDS011;13497;48.322;16.204;2024-03-23T09:24:49;7.45;;;6.53;;
25639;SDS011;13497;48.322;16.204;2024-03-23T09:27:14;5.90;;;5.10;;
25639;SDS011;13497;48.322;16.204;2024-03-23T09:29:40;6.95;;;6.35;;
25639;SDS011;13497;48.322;16.204;2024-03-23T09:32:05;6.18;;;5.68;;
25639;SDS011;13497;48.322;16.204;2024-03-23T09:34:31;4.82;;;4.03;;
25639;SDS011;13497;48.322;16.204;2024-03-23T09:36:57;3.47;;;1.92;;
25639;SDS011;13497;48.322;16.204;2024-03-23T09:39:22;3.40;;;1.27;;
25639;SDS011;13497;48.322;16.204;2024-03-23T09:41:48;6.85;;;6.15;;
25639;SDS011;13497;48.322;16.204;2024-03-23T09:44:14;4.90;;;4.47;;
25639;SDS011;13497;48.322;16.204;2024-03-23T09:46:39;6.03;;;4.57;;
25639;SDS011;13497;48.322;16.204;2024-03-23T09:49:08;5.60;;;5.10;;
25639;SDS011;13497;48.322;16.204;2024-03-23T09:51:37;6.05;;;5.55;;
25639;SDS011;13497;48.322;16.204;2024-03-23T09:54:03;8.13;;;5.20;;
25639;SDS011;13497;48.322;16.204;2024-03-23T09:56:28;4.75;;;3.53;;
25639;SDS011;13497;48.322;16.204;2024-03-23T09:59:03;5.22;;;3.30;;
25639;SDS011;13497;48.322;16.204;2024-03-23T10:01:29;6.80;;;4.78;;
25639;SDS011;13497;48.322;16.204;2024-03-23T10:03:55;5.82;;;5.32;;
25639;SDS011;13497;48.322;16.204;2024-03-23T10:08:49;5.85;;;5.43;;
25639;SDS011;13497;48.322;16.204;2024-03-23T10:13:42;6.82;;;6.32;;
25639;SDS011;13497;48.322;16.204;2024-03-23T10:16:09;8.73;;;6.13;;
25639;SDS011;13497;48.322;16.204;2024-03-23T10:18:38;4.78;;;4.20;;
25639;SDS011;13497;48.322;16.204;2024-03-23T10:21:08;5.18;;;4.45;;
25639;SDS011;13497;48.322;16.204;2024-03-23T10:23:36;6.38;;;4.05;;
25639;SDS011;13497;48.322;16.204;2024-03-23T10:26:19;4.85;;;4.45;;
25639;SDS011;13497;48.322;16.204;2024-03-23T10:28:54;5.78;;;1.48;;
25639;SDS011;13497;48.322;16.204;2024-03-23T10:31:26;5.65;;;5.10;;
25639;SDS011;13497;48.322;16.204;2024-03-23T10:33:55;6.90;;;3.22;;
25639;SDS011;13497;48.322;16.204;2024-03-23T10:36:21;9.27;;;4.35;;
25639;SDS011;13497;48.322;16.204;2024-03-23T10:38:49;5.70;;;5.20;;
25639;SDS011;13497;48.322;16.204;2024-03-23T10:41:16;7.22;;;5.90;;
25639;SDS011;13497;48.322;16.204;2024-03-23T10:43:43;5.35;;;3.80;;
25639;SDS011;13497;48.322;16.204;2024-03-23T10:46:11;7.30;;;5.18;;
25639;SDS011;13497;48.322;16.204;2024-03-23T10:48:36;2.15;;;0.90;;
25639;SDS011;13497;48.322;16.204;2024-03-23T10:53:29;7.25;;;6.00;;
25639;SDS011;13497;48.322;16.204;2024-03-23T10:55:57;9.82;;;6.97;;
25639;SDS011;13497;48.322;16.204;2024-03-23T10:58:29;4.85;;;3.70;;
25639;SDS011;13497;48.322;16.204;2024-03-23T11:00:57;5.40;;;3.50;;
25639;SDS011;13497;48.322;16.204;2024-03-23T11:03:32;6.63;;;6.07;;
25639;SDS011;13497;48.322;16.204;2024-03-23T11:06:02;4.50;;;2.38;;
25639;SDS011;13497;48.322;16.204;2024-03-23T11:08:39;8.82;;;6.70;;
25639;SDS011;13497;48.322;16.204;2024-03-23T11:13:47;9.35;;;5.13;;
25639;SDS011;13497;48.322;16.204;2024-03-23T11:16:37;8.45;;;4.68;;
25639;SDS011;13497;48.322;16.204;2024-03-23T11:21:58;5.05;;;4.57;;
25639;SDS011;13497;48.322;16.204;2024-03-23T11:24:24;10.98;;;5.03;;
25639;SDS011;13497;48.322;16.204;2024-03-23T11:26:49;5.25;;;4.05;;
25639;SDS011;13497;48.322;16.204;2024-03-23T11:29:15;9.18;;;5.28;;
25639;SDS011;13497;48.322;16.204;2024-03-23T11:31:52;4.95;;;4.45;;
25639;SDS011;13497;48.322;16.204;2024-03-23T11:34:21;8.45;;;1.08;;
25639;SDS011;13497;48.322;16.204;2024-03-23T11:36:48;5.78;;;4.07;;
25639;SDS011;13497;48.322;16.204;2024-03-23T11:39:19;23.77;;;1.83;;
25639;SDS011;13497;48.322;16.204;2024-03-23T11:41:46;12.18;;;7.00;;
25639;SDS011;13497;48.322;16.204;2024-03-23T11:44:18;6.32;;;4.45;;
25639;SDS011;13497;48.322;16.204;2024-03-23T11:46:45;7.70;;;4.43;;
25639;SDS011;13497;48.322;16.204;2024-03-23T11:49:27;10.50;;;3.30;;
25639;SDS011;13497;48.322;16.204;2024-03-23T11:51:54;4.63;;;1.38;;
25639;SDS011;13497;48.322;16.204;2024-03-23T11:54:24;6.50;;;5.90;;
25639;SDS011;13497;48.322;16.204;2024-03-23T11:56:54;6.70;;;4.78;;
25639;SDS011;13497;48.322;16.204;2024-03-23T11:59:38;5.05;;;4.65;;
25639;SDS011;13497;48.322;16.204;2024-03-23T12:02:06;8.10;;;4.28;;
25639;SDS011;13497;48.322;16.204;2024-03-23T12:04:32;7.78;;;5.35;;
25639;SDS011;13497;48.322;16.204;2024-03-23T12:07:11;6.70;;;3.72;;
25639;SDS011;13497;48.322;16.204;2024-03-23T12:09:41;7.55;;;4.65;;
25639;SDS011;13497;48.322;16.204;2024-03-23T12:14:32;7.07;;;6.38;;
25639;SDS011;13497;48.322;16.204;2024-03-23T12:17:07;5.55;;;5.15;;
25639;SDS011;13497;48.322;16.204;2024-03-23T12:19:36;6.50;;;5.93;;
25639;SDS011;13497;48.322;16.204;2024-03-23T12:24:29;5.20;;;4.57;;
25639;SDS011;13497;48.322;16.204;2024-03-23T12:26:59;6.40;;;4.90;;
25639;SDS011;13497;48.322;16.204;2024-03-23T12:29:28;7.68;;;6.45;;
25639;SDS011;13497;48.322;16.204;2024-03-23T12:31:54;7.22;;;4.22;;
25639;SDS011;13497;48.322;16.204;2024-03-23T12:34:21;5.55;;;5.00;;
25639;SDS011;13497;48.322;16.204;2024-03-23T12:36:46;6.57;;;5.97;;
25639;SDS011;13497;48.322;16.204;2024-03-23T12:39:12;4.07;;;1.40;;
25639;SDS011;13497;48.322;16.204;2024-03-23T12:41:37;7.80;;;4.82;;
25639;SDS011;13497;48.322;16.204;2024-03-23T12:44:03;4.95;;;4.20;;
25639;SDS011;13497;48.322;16.204;2024-03-23T12:46:29;7.25;;;3.60;;
25639;SDS011;13497;48.322;16.204;2024-03-23T12:48:54;12.05;;;4.85;;
25639;SDS011;13497;48.322;16.204;2024-03-23T12:51:20;8.95;;;4.82;;
25639;SDS011;13497;48.322;16.204;2024-03-23T12:53:46;7.53;;;3.67;;
25639;SDS011;13497;48.322;16.204;2024-03-23T12:56:12;10.02;;;4.03;;
25639;SDS011;13497;48.322;16.204;2024-03-23T12:58:37;12.40;;;5.72;;
25639;SDS011;13497;48.322;16.204;2024-03-23T13:01:03;8.60;;;4.68;;
25639;SDS011;13497;48.322;16.204;2024-03-23T13:03:28;6.20;;;4.20;;
25639;SDS011;13497;48.322;16.204;2024-03-23T13:05:54;6.80;;;6.22;;
25639;SDS011;13497;48.322;16.204;2024-03-23T13:08:20;9.50;;;5.32;;
25639;SDS011;13497;48.322;16.204;2024-03-23T13:10:45;6.88;;;6.38;;
25639;SDS011;13497;48.322;16.204;2024-03-23T13:15:37;6.63;;;6.13;;
25639;SDS011;13497;48.322;16.204;2024-03-23T13:18:03;7.22;;;4.85;;
25639;SDS011;13497;48.322;16.204;2024-03-23T13:20:28;6.57;;;6.13;;
25639;SDS011;13497;48.322;16.204;2024-03-23T13:22:54;5.80;;;5.28;;
25639;SDS011;13497;48.322;16.204;2024-03-23T13:25:20;6.63;;;6.03;;
25639;SDS011;13497;48.322;16.204;2024-03-23T13:27:46;5.45;;;5.05;;
25639;SDS011;13497;48.322;16.204;2024-03-23T13:30:12;7.00;;;5.35;;
25639;SDS011;13497;48.322;16.204;2024-03-23T13:32:38;6.07;;;5.18;;
25639;SDS011;13497;48.322;16.204;2024-03-23T13:35:04;7.20;;;6.63;;
25639;SDS011;13497;48.322;16.204;2024-03-23T13:37:31;6.18;;;5.78;;
25639;SDS011;13497;48.322;16.204;2024-03-23T13:39:57;7.53;;;4.70;;
25639;SDS011;13497;48.322;16.204;2024-03-23T13:42:22;5.35;;;4.45;;
25639;SDS011;13497;48.322;16.204;2024-03-23T13:44:50;6.45;;;5.95;;
25639;SDS011;13497;48.322;16.204;2024-03-23T13:47:16;6.72;;;5.25;;
25639;SDS011;13497;48.322;16.204;2024-03-23T13:49:42;7.40;;;6.70;;
25639;SDS011;13497;48.322;16.204;2024-03-23T13:52:08;6.72;;;4.60;;
25639;SDS011;13497;48.322;16.204;2024-03-23T13:54:33;6.10;;;5.57;;
25639;SDS011;13497;48.322;16.204;2024-03-23T13:56:59;5.38;;;4.88;;
25639;SDS011;13497;48.322;16.204;2024-03-23T13:59:24;8.30;;;2.97;;
25639;SDS011;13497;48.322;16.204;2024-03-23T14:01:50;9.10;;;8.50;;
25639;SDS011;13497;48.322;16.204;2024-03-23T14:04:16;8.45;;;7.30;;
25639;SDS011;13497;48.322;16.204;2024-03-23T14:06:42;7.40;;;6.68;;
25639;SDS011;13497;48.322;16.204;2024-03-23T14:09:11;7.28;;;4.68;;
25639;SDS011;13497;48.322;16.204;2024-03-23T14:11:37;5.70;;;5.20;;
25639;SDS011;13497;48.322;16.204;2024-03-23T14:14:02;9.95;;;9.43;;
25639;SDS011;13497;48.322;16.204;2024-03-23T14:16:29;5.93;;;5.43;;
25639;SDS011;13497;48.322;16.204;2024-03-23T14:18:56;6.75;;;5.60;;
25639;SDS011;13497;48.322;16.204;2024-03-23T14:21:21;6.68;;;5.95;;
25639;SDS011;13497;48.322;16.204;2024-03-23T14:23:47;7.38;;;6.78;;
25639;SDS011;13497;48.322;16.204;2024-03-23T14:26:13;9.50;;;8.60;;
25639;SDS011;13497;48.322;16.204;2024-03-23T14:28:39;9.25;;;8.40;;
25639;SDS011;13497;48.322;16.204;2024-03-23T14:31:05;7.95;;;7.38;;
25639;SDS011;13497;48.322;16.204;2024-03-23T14:33:35;7.40;;;6.70;;
25639;SDS011;13497;48.322;16.204;2024-03-23T14:36:10;9.15;;;8.45;;
25639;SDS011;13497;48.322;16.204;2024-03-23T14:38:36;8.38;;;6.47;;
25639;SDS011;13497;48.322;16.204;2024-03-23T14:41:02;7.35;;;6.75;;
25639;SDS011;13497;48.322;16.204;2024-03-23T14:43:29;5.55;;;5.10;;
25639;SDS011;13497;48.322;16.204;2024-03-23T14:46:07;7.80;;;7.15;;
25639;SDS011;13497;48.322;16.204;2024-03-23T14:48:34;7.60;;;6.90;;
25639;SDS011;13497;48.322;16.204;2024-03-23T14:51:00;6.38;;;5.88;;
25639;SDS011;13497;48.322;16.204;2024-03-23T14:53:30;4.18;;;2.45;;
25639;SDS011;13497;48.322;16.204;2024-03-23T14:55:57;7.28;;;6.53;;
25639;SDS011;13497;48.322;16.204;2024-03-23T14:58:23;7.07;;;6.57;;
25639;SDS011;13497;48.322;16.204;2024-03-23T15:00:49;7.78;;;6.40;;
25639;SDS011;13497;48.322;16.204;2024-03-23T15:03:15;6.50;;;3.22;;
25639;SDS011;13497;48.322;16.204;2024-03-23T15:05:41;7.30;;;6.57;;
25639;SDS011;13497;48.322;16.204;2024-03-23T15:08:07;6.43;;;5.93;;
25639;SDS011;13497;48.322;16.204;2024-03-23T15:10:33;8.80;;;8.23;;
25639;SDS011;13497;48.322;16.204;2024-03-23T15:12:58;8.52;;;7.88;;
25639;SDS011;13497;48.322;16.204;2024-03-23T15:15:24;8.07;;;7.32;;
25639;SDS011;13497;48.322;16.204;2024-03-23T15:17:50;9.00;;;7.65;;
25639;SDS011;13497;48.322;16.204;2024-03-23T15:20:16;6.50;;;6.00;;
25639;SDS011;13497;48.322;16.204;2024-03-23T15:22:41;7.18;;;6.70;;
25639;SDS011;13497;48.322;16.204;2024-03-23T15:25:07;7.75;;;7.05;;
25639;SDS011;13497;48.322;16.204;2024-03-23T15:27:33;8.23;;;7.43;;
25639;SDS011;13497;48.322;16.204;2024-03-23T15:29:59;7.43;;;6.75;;
25639;SDS011;13497;48.322;16.204;2024-03-23T15:32:24;9.63;;;8.75;;
25639;SDS011;13497;48.322;16.204;2024-03-23T15:34:50;9.00;;;8.20;;
25639;SDS011;13497;48.322;16.204;2024-03-23T15:37:17;7.70;;;7.18;;
25639;SDS011;13497;48.322;16.204;2024-03-23T15:39:43;9.68;;;9.00;;
25639;SDS011;13497;48.322;16.204;2024-03-23T15:42:08;6.95;;;6.45;;
25639;SDS011;13497;48.322;16.204;2024-03-23T15:44:35;8.65;;;7.93;;
25639;SDS011;13497;48.322;16.204;2024-03-23T15:47:00;7.30;;;6.70;;